createdAt,value
2018-01-10T00:01:18.862Z,7.93
2018-01-10T00:03:46.607Z,7.94
2018-01-10T00:06:14.227Z,7.92
2018-01-10T00:08:41.836Z,7.91
2018-01-10T00:11:09.442Z,7.93
2018-01-10T00:13:37.058Z,7.95
2018-01-10T00:16:04.638Z,7.96
2018-01-10T00:18:32.274Z,7.97
2018-01-10T00:20:59.874Z,7.97
2018-01-10T00:23:27.490Z,7.97
2018-01-10T00:25:55.079Z,7.95
2018-01-10T00:28:22.699Z,7.96
2018-01-10T00:30:50.418Z,7.97
2018-01-10T00:33:18.028Z,8.00
2018-01-10T00:35:45.619Z,8.04
2018-01-10T00:38:13.292Z,8.04
2018-01-10T00:40:40.866Z,8.03
2018-01-10T00:43:08.495Z,8.05
2018-01-10T00:45:36.078Z,8.06
2018-01-10T00:48:03.718Z,8.04
2018-01-10T00:50:31.314Z,8.08
2018-01-10T00:52:58.938Z,8.09
2018-01-10T00:55:26.532Z,8.09
2018-01-10T00:57:54.146Z,8.08
2018-01-10T01:00:21.737Z,8.05
2018-01-10T01:02:49.355Z,8.01
2018-01-10T01:05:16.949Z,8.00
2018-01-10T01:07:44.543Z,7.99
2018-01-10T01:10:12.161Z,7.99
2018-01-10T01:12:39.762Z,8.01
2018-01-10T01:15:07.378Z,8.01
2018-01-10T01:17:35.005Z,7.98
2018-01-10T01:20:02.694Z,7.93
2018-01-10T01:22:30.345Z,7.95
2018-01-10T01:24:57.941Z,7.94
2018-01-10T01:27:25.534Z,7.92
2018-01-10T01:29:53.162Z,7.91
2018-01-10T01:32:20.797Z,7.90
2018-01-10T01:34:48.381Z,7.94
2018-01-10T01:37:16.106Z,7.92
2018-01-10T01:39:43.686Z,7.94
2018-01-10T01:42:11.297Z,7.96
2018-01-10T01:44:39.004Z,7.95
2018-01-10T01:47:06.653Z,7.95
2018-01-10T01:49:34.230Z,7.96
2018-01-10T01:52:01.890Z,7.94
2018-01-10T01:54:29.492Z,7.90
2018-01-10T01:56:57.110Z,7.91
2018-01-10T01:59:24.698Z,7.90
2018-01-10T02:01:52.322Z,7.90
2018-01-10T02:04:19.910Z,7.92
2018-01-10T02:06:47.490Z,7.98
2018-01-10T02:09:15.113Z,7.95
2018-01-10T02:11:42.695Z,7.94
2018-01-10T02:14:10.334Z,7.95
2018-01-10T02:16:38.042Z,7.97
2018-01-10T02:19:05.653Z,7.99
2018-01-10T02:21:33.287Z,8.01
2018-01-10T02:24:00.922Z,8.02
2018-01-10T02:26:28.958Z,8.03
2018-01-10T02:28:56.577Z,8.01
2018-01-10T02:31:24.163Z,8.04
2018-01-10T02:33:51.781Z,8.06
2018-01-10T02:36:19.378Z,8.08
2018-01-10T02:38:47.059Z,8.05
2018-01-10T02:41:14.700Z,8.04
2018-01-10T02:43:42.279Z,8.02
2018-01-10T02:46:09.883Z,8.00
2018-01-10T02:48:37.480Z,8.02
2018-01-10T02:51:05.109Z,8.05
2018-01-10T02:53:32.693Z,8.04
2018-01-10T02:56:00.341Z,8.03
2018-01-10T02:58:28.013Z,8.09
2018-01-10T03:00:55.618Z,8.09
2018-01-10T03:03:23.205Z,8.09
2018-01-10T03:05:50.942Z,8.10
2018-01-10T03:08:18.543Z,8.12
2018-01-10T03:10:46.155Z,8.11
2018-01-10T03:13:13.761Z,8.13
2018-01-10T03:15:41.458Z,8.15
2018-01-10T03:18:09.078Z,8.17
2018-01-10T03:20:36.694Z,8.17
2018-01-10T03:23:04.270Z,8.16
2018-01-10T03:25:31.906Z,8.18
2018-01-10T03:27:59.489Z,8.19
2018-01-10T03:30:27.114Z,8.19
2018-01-10T03:32:54.777Z,8.17
2018-01-10T03:35:22.393Z,8.19
2018-01-10T03:37:49.977Z,8.22
2018-01-10T03:40:17.586Z,8.20
2018-01-10T03:42:45.190Z,8.23
2018-01-10T03:45:12.850Z,8.21
2018-01-10T03:47:40.432Z,8.21
2018-01-10T03:50:08.050Z,8.22
2018-01-10T03:52:35.634Z,8.21
2018-01-10T03:55:03.246Z,8.23
2018-01-10T03:57:30.829Z,8.27
2018-01-10T03:59:58.445Z,8.30
2018-01-10T04:02:26.035Z,8.31
2018-01-10T04:04:53.670Z,8.31
2018-01-10T04:07:21.368Z,8.36
2018-01-10T04:09:48.976Z,8.40
2018-01-10T04:12:16.558Z,8.40
2018-01-10T04:14:44.167Z,8.40
2018-01-10T04:17:11.752Z,8.41
2018-01-10T04:19:39.361Z,8.42
2018-01-10T04:22:07.803Z,8.39
2018-01-10T04:24:35.413Z,8.36
2018-01-10T04:27:02.998Z,8.36
2018-01-10T04:29:30.621Z,8.37
2018-01-10T04:31:58.206Z,8.37
2018-01-10T04:34:25.825Z,8.38
2018-01-10T04:36:53.406Z,8.37
2018-01-10T04:39:21.009Z,8.38
2018-01-10T04:41:48.587Z,8.37
2018-01-10T04:44:16.203Z,8.39
2018-01-10T04:46:43.858Z,8.38
2018-01-10T04:49:11.610Z,8.34
2018-01-10T04:51:39.205Z,8.34
2018-01-10T04:54:06.815Z,8.36
2018-01-10T04:56:34.399Z,8.38
2018-01-10T04:59:02.046Z,8.40
2018-01-10T05:01:29.646Z,8.40
2018-01-10T05:03:57.265Z,8.41
2018-01-10T05:06:24.862Z,8.40
2018-01-10T05:08:52.493Z,8.40
2018-01-10T05:11:20.071Z,8.42
2018-01-10T05:13:47.734Z,8.44
2018-01-10T05:16:15.351Z,8.44
2018-01-10T05:18:42.958Z,8.44
2018-01-10T05:21:10.577Z,8.46
2018-01-10T05:23:38.162Z,8.46
2018-01-10T05:26:05.785Z,8.46
2018-01-10T05:28:33.370Z,8.49
2018-01-10T05:31:00.996Z,8.50
2018-01-10T05:33:28.742Z,8.50
2018-01-10T05:35:56.350Z,8.53
2018-01-10T05:38:23.946Z,8.56
2018-01-10T05:40:51.581Z,8.53
2018-01-10T05:43:19.167Z,8.52
2018-01-10T05:45:46.787Z,8.52
2018-01-10T05:48:14.395Z,8.50
2018-01-10T05:50:42.012Z,8.52
2018-01-10T05:53:09.615Z,8.52
2018-01-10T05:55:37.233Z,8.57
2018-01-10T05:58:04.805Z,8.57
2018-01-10T06:00:32.470Z,8.59
2018-01-10T06:03:00.042Z,8.58
2018-01-10T06:05:27.738Z,8.58
2018-01-10T06:07:55.537Z,8.55
2018-01-10T06:10:23.165Z,8.61
2018-01-10T06:12:50.829Z,8.64
2018-01-10T06:15:18.450Z,8.66
2018-01-10T06:17:46.043Z,8.63
2018-01-10T06:20:13.654Z,8.65
2018-01-10T06:22:41.246Z,8.65
2018-01-10T06:25:08.884Z,8.64
2018-01-10T06:27:36.487Z,8.63
2018-01-10T06:30:04.118Z,8.65
2018-01-10T06:32:31.698Z,8.63
2018-01-10T06:34:59.318Z,8.62
2018-01-10T06:37:26.917Z,8.63
2018-01-10T06:39:54.721Z,8.61
2018-01-10T06:42:22.290Z,8.61
2018-01-10T06:44:49.925Z,8.65
2018-01-10T06:47:17.519Z,8.68
2018-01-10T06:49:45.154Z,8.67
2018-01-10T06:52:13.849Z,8.66
2018-01-10T06:54:41.516Z,8.62
2018-01-10T06:57:09.116Z,8.62
2018-01-10T06:59:36.798Z,8.64
2018-01-10T07:02:04.384Z,8.62
2018-01-10T07:04:32.062Z,8.64
2018-01-10T07:06:59.676Z,8.68
2018-01-10T07:09:27.313Z,8.68
2018-01-10T07:11:54.898Z,8.67
2018-01-10T07:14:22.580Z,8.66
2018-01-10T07:16:50.174Z,8.68
2018-01-10T07:19:17.803Z,8.70
2018-01-10T07:21:45.398Z,8.69
2018-01-10T07:24:13.026Z,8.70
2018-01-10T07:26:40.687Z,8.70
2018-01-10T07:29:08.306Z,8.69
2018-01-10T07:31:35.894Z,8.68
2018-01-10T07:34:03.506Z,8.70
2018-01-10T07:36:31.086Z,8.72
2018-01-10T07:38:58.706Z,8.70
2018-01-10T07:41:26.293Z,8.69
2018-01-10T07:43:53.962Z,8.69
2018-01-10T07:46:21.559Z,8.69
2018-01-10T07:48:49.189Z,8.69
2018-01-10T07:51:16.774Z,8.69
2018-01-10T07:53:44.567Z,8.70
2018-01-10T07:56:12.144Z,8.69
2018-01-10T07:58:39.750Z,8.71
2018-01-10T08:01:07.378Z,8.72
2018-01-10T08:03:34.978Z,8.70
2018-01-10T08:06:02.594Z,8.68
2018-01-10T08:08:30.186Z,8.68
2018-01-10T08:10:57.804Z,8.66
2018-01-10T08:13:25.386Z,8.65
2018-01-10T08:15:52.996Z,8.63
2018-01-10T08:18:20.636Z,8.65
2018-01-10T08:20:48.222Z,8.66
2018-01-10T08:23:15.845Z,8.66
2018-01-10T08:25:43.440Z,8.68
2018-01-10T08:28:11.062Z,8.70
2018-01-10T08:30:38.638Z,8.70
2018-01-10T08:33:06.264Z,8.71
2018-01-10T08:35:33.842Z,8.69
2018-01-10T08:38:01.462Z,8.67
2018-01-10T08:40:29.050Z,8.68
2018-01-10T08:42:56.688Z,8.69
2018-01-10T08:45:24.266Z,8.71
2018-01-10T08:47:51.894Z,8.70
2018-01-10T08:50:19.486Z,8.70
2018-01-10T08:52:47.110Z,8.70
2018-01-10T08:55:14.682Z,8.65
2018-01-10T08:57:42.310Z,8.62
2018-01-10T09:00:09.929Z,8.61
2018-01-10T09:02:37.513Z,8.61
2018-01-10T09:05:05.210Z,8.61
2018-01-10T09:07:32.794Z,8.61
2018-01-10T09:10:00.488Z,8.63
2018-01-10T09:12:28.018Z,8.66
2018-01-10T09:14:55.614Z,8.71
2018-01-10T09:17:23.254Z,8.73
2018-01-10T09:19:50.835Z,8.78
2018-01-10T09:22:18.449Z,8.78
2018-01-10T09:24:46.034Z,8.79
2018-01-10T09:27:13.653Z,8.82
2018-01-10T09:29:41.254Z,8.86
2018-01-10T09:32:08.886Z,8.84
2018-01-10T09:34:36.473Z,8.88
2018-01-10T09:37:04.246Z,8.91
2018-01-10T09:39:31.857Z,8.98
2018-01-10T09:41:59.482Z,9.01
2018-01-10T09:44:27.055Z,9.04
2018-01-10T09:46:54.719Z,9.08
2018-01-10T09:49:22.305Z,9.11
2018-01-10T09:51:49.939Z,9.14
2018-01-10T09:54:17.546Z,9.19
2018-01-10T09:56:45.149Z,9.24
2018-01-10T09:59:12.743Z,9.25
2018-01-10T10:01:40.358Z,9.30
2018-01-10T10:04:07.942Z,9.31
2018-01-10T10:06:35.601Z,9.34
2018-01-10T10:09:03.184Z,9.39
2018-01-10T10:11:30.801Z,9.39
2018-01-10T10:13:58.401Z,9.40
2018-01-10T10:16:26.061Z,9.41
2018-01-10T10:18:53.703Z,9.44
2018-01-10T10:21:21.359Z,9.45
2018-01-10T10:23:48.957Z,9.48
2018-01-10T10:26:16.586Z,9.53
2018-01-10T10:28:44.178Z,9.55
2018-01-10T10:31:11.798Z,9.60
2018-01-10T10:33:39.386Z,9.63
2018-01-10T10:36:06.997Z,9.67
2018-01-10T10:38:34.579Z,9.71
2018-01-10T10:41:02.269Z,9.74
2018-01-10T10:43:29.853Z,9.80
2018-01-10T10:45:57.466Z,9.85
2018-01-10T10:48:25.051Z,9.90
2018-01-10T10:50:52.757Z,9.90
2018-01-10T10:53:20.362Z,9.90
2018-01-10T10:55:47.966Z,9.89
2018-01-10T10:58:15.681Z,9.89
2018-01-10T11:00:43.294Z,9.93
2018-01-10T11:03:10.894Z,9.92
2018-01-10T11:05:38.524Z,9.93
2018-01-10T11:08:06.105Z,9.92
2018-01-10T11:10:33.729Z,9.95
2018-01-10T11:13:01.321Z,9.97
2018-01-10T11:15:28.940Z,9.97
2018-01-10T11:17:56.515Z,9.97
2018-01-10T11:20:24.143Z,9.98
2018-01-10T11:22:51.753Z,10.01
2018-01-10T11:25:19.378Z,10.01
2018-01-10T11:27:51.626Z,10.03
2018-01-10T11:30:19.249Z,10.01
2018-01-10T11:32:46.950Z,10.04
2018-01-10T11:35:14.578Z,10.04
2018-01-10T11:37:42.159Z,10.06
2018-01-10T11:40:09.782Z,10.06
2018-01-10T11:42:37.350Z,10.07
2018-01-10T11:45:05.084Z,10.05
2018-01-10T11:47:32.697Z,10.05
2018-01-10T11:50:00.315Z,10.09
2018-01-10T11:52:27.913Z,10.11
2018-01-10T11:54:55.563Z,10.12
2018-01-10T11:57:23.171Z,10.14
2018-01-10T11:59:50.759Z,10.12
2018-01-10T12:02:18.374Z,10.09
2018-01-10T12:04:45.973Z,10.09
2018-01-10T12:07:13.763Z,10.13
2018-01-10T12:09:41.386Z,10.17
2018-01-10T12:12:09.041Z,10.16
2018-01-10T12:14:36.622Z,10.14
2018-01-10T12:17:04.210Z,10.10
2018-01-10T12:19:31.877Z,10.06
2018-01-10T12:21:59.445Z,10.03
2018-01-10T12:24:27.063Z,10.01
2018-01-10T12:26:54.724Z,10.00
2018-01-10T12:29:22.310Z,9.98
2018-01-10T12:31:49.927Z,9.93
2018-01-10T12:34:17.543Z,9.92
2018-01-10T12:36:45.134Z,9.93
2018-01-10T12:39:12.848Z,9.91
2018-01-10T12:41:40.454Z,9.90
2018-01-10T12:44:08.071Z,9.90
2018-01-10T12:46:35.674Z,9.93
2018-01-10T12:49:03.300Z,9.94
2018-01-10T12:51:30.883Z,9.95
2018-01-10T12:53:58.507Z,9.98
2018-01-10T12:56:26.153Z,10.01
2018-01-10T12:58:53.775Z,10.02
2018-01-10T13:01:21.358Z,10.06
2018-01-10T13:03:48.979Z,10.09
2018-01-10T13:06:16.598Z,10.10
2018-01-10T13:08:44.190Z,10.14
2018-01-10T13:11:11.786Z,10.12
2018-01-10T13:13:39.531Z,10.15
2018-01-10T13:16:07.158Z,10.17
2018-01-10T13:18:34.747Z,10.18
2018-01-10T13:21:02.411Z,10.19
2018-01-10T13:23:30.047Z,10.26
2018-01-10T13:25:57.634Z,10.34
2018-01-10T13:28:25.333Z,10.40
2018-01-10T13:30:52.926Z,10.46
2018-01-10T13:33:20.593Z,10.51
2018-01-10T13:35:48.233Z,10.52
2018-01-10T13:38:15.867Z,10.60
2018-01-10T13:40:43.487Z,10.68
2018-01-10T13:43:11.119Z,10.80
2018-01-10T13:45:38.710Z,11.23
2018-01-10T13:48:06.444Z,11.62
2018-01-10T13:50:34.010Z,11.72
2018-01-10T13:53:01.619Z,11.45
2018-01-10T13:55:29.208Z,11.27
2018-01-10T13:57:56.830Z,11.13
2018-01-10T14:00:24.440Z,11.01
2018-01-10T14:02:52.071Z,10.92
2018-01-10T14:05:19.716Z,10.81
2018-01-10T14:07:47.730Z,10.76
2018-01-10T14:10:15.339Z,10.71
2018-01-10T14:12:42.997Z,10.64
2018-01-10T14:15:10.586Z,10.61
2018-01-10T14:17:38.207Z,10.59
2018-01-10T14:20:05.801Z,10.55
2018-01-10T14:22:33.442Z,10.54
2018-01-10T14:25:01.041Z,10.53
2018-01-10T14:27:28.697Z,10.53
2018-01-10T14:29:56.283Z,10.53
2018-01-10T14:32:23.919Z,10.54
2018-01-10T14:34:51.531Z,10.51
2018-01-10T14:37:19.119Z,10.50
2018-01-10T14:39:46.748Z,10.50
2018-01-10T14:42:14.367Z,10.51
2018-01-10T14:44:41.969Z,10.48
2018-01-10T14:47:09.658Z,10.45
2018-01-10T14:49:37.282Z,10.46
2018-01-10T14:52:05.087Z,10.46
2018-01-10T14:54:32.692Z,10.45
2018-01-10T14:57:00.344Z,10.47
2018-01-10T14:59:27.929Z,10.43
2018-01-10T15:01:55.527Z,10.40
2018-01-10T15:04:23.168Z,10.37
2018-01-10T15:06:50.809Z,10.34
2018-01-10T15:09:18.558Z,10.34
2018-01-10T15:11:46.149Z,10.32
2018-01-10T15:14:13.784Z,10.33
2018-01-10T15:16:41.379Z,10.31
2018-01-10T15:19:09.007Z,10.34
2018-01-10T15:21:36.605Z,10.33
2018-01-10T15:24:04.269Z,10.34
2018-01-10T15:26:31.890Z,10.33
2018-01-10T15:28:59.475Z,10.31
2018-01-10T15:31:27.246Z,10.32
2018-01-10T15:33:54.905Z,10.30
2018-01-10T15:36:22.534Z,10.31
2018-01-10T15:38:50.130Z,10.28
2018-01-10T15:41:17.784Z,10.30
2018-01-10T15:43:45.597Z,10.33
2018-01-10T15:46:13.226Z,10.33
2018-01-10T15:48:40.819Z,10.32
2018-01-10T15:51:08.454Z,10.31
2018-01-10T15:53:36.043Z,10.30
2018-01-10T15:56:03.669Z,10.30
2018-01-10T15:58:31.272Z,10.28
2018-01-10T16:00:58.966Z,10.24
2018-01-10T16:03:26.587Z,10.24
2018-01-10T16:05:54.231Z,10.23
2018-01-10T16:08:23.413Z,10.23
2018-01-10T16:10:51.039Z,10.25
2018-01-10T16:13:18.667Z,10.25
2018-01-10T16:15:46.259Z,10.22
2018-01-10T16:18:13.895Z,10.23
2018-01-10T16:20:41.490Z,10.24
2018-01-10T16:23:09.130Z,10.24
2018-01-10T16:25:36.738Z,10.27
2018-01-10T16:28:04.378Z,10.25
2018-01-10T16:30:31.982Z,10.23
2018-01-10T16:32:59.617Z,10.25
2018-01-10T16:35:27.216Z,10.26
2018-01-10T16:37:54.850Z,10.26
2018-01-10T16:40:22.468Z,10.26
2018-01-10T16:42:50.190Z,10.25
2018-01-10T16:45:17.814Z,10.25
2018-01-10T16:47:45.427Z,10.25
2018-01-10T16:50:13.023Z,10.27
2018-01-10T16:52:40.727Z,10.32
2018-01-10T16:55:08.334Z,10.33
2018-01-10T16:57:35.974Z,10.31
2018-01-10T17:00:03.576Z,10.26
2018-01-10T17:02:31.222Z,10.25
2018-01-10T17:04:58.826Z,10.28
2018-01-10T17:07:26.926Z,10.28
2018-01-10T17:09:54.675Z,10.25
2018-01-10T17:12:22.287Z,10.24
2018-01-10T17:14:49.869Z,10.24
2018-01-10T17:17:17.612Z,10.22
2018-01-10T17:19:45.173Z,10.21
2018-01-10T17:22:12.841Z,10.19
2018-01-10T17:24:40.462Z,10.20
2018-01-10T17:27:08.093Z,10.19
2018-01-10T17:29:35.814Z,10.19
2018-01-10T17:32:03.460Z,10.22
2018-01-10T17:34:31.062Z,10.18
2018-01-10T17:36:58.713Z,10.19
2018-01-10T17:39:26.353Z,10.15
2018-01-10T17:41:53.995Z,10.15
2018-01-10T17:44:21.610Z,10.16
2018-01-10T17:46:49.240Z,10.17
2018-01-10T17:49:16.850Z,10.14
2018-01-10T17:51:44.489Z,10.15
2018-01-10T17:54:12.269Z,10.15
2018-01-10T17:56:39.713Z,10.12
2018-01-10T17:59:07.343Z,10.15
2018-01-10T18:01:34.990Z,10.12
2018-01-10T18:04:02.594Z,10.11
2018-01-10T18:06:30.289Z,10.11
2018-01-10T18:08:57.852Z,10.10
2018-01-10T18:11:25.499Z,10.06
2018-01-10T18:13:53.114Z,10.04
2018-01-10T18:16:20.758Z,10.02
2018-01-10T18:18:48.350Z,10.03
2018-01-10T18:21:15.983Z,10.05
2018-01-10T18:23:43.610Z,10.06
2018-01-10T18:26:11.322Z,10.06
2018-01-10T18:28:38.966Z,10.02
2018-01-10T18:31:06.607Z,10.01
2018-01-10T18:33:34.230Z,10.00
2018-01-10T18:36:01.858Z,10.00
2018-01-10T18:38:29.487Z,9.99
2018-01-10T18:40:57.098Z,9.98
2018-01-10T18:43:24.709Z,10.01
2018-01-10T18:45:52.543Z,10.03
2018-01-10T18:48:20.182Z,10.03
2018-01-10T18:50:47.803Z,10.06
2018-01-10T18:53:15.476Z,10.07
2018-01-10T18:55:43.173Z,10.06
2018-01-10T18:58:10.763Z,10.03
2018-01-10T19:00:38.399Z,10.04
2018-01-10T19:03:06.014Z,10.02
2018-01-10T19:05:33.679Z,10.01
2018-01-10T19:08:01.305Z,10.00
2018-01-10T19:10:28.986Z,9.97
2018-01-10T19:12:56.622Z,9.94
2018-01-10T19:15:24.258Z,9.91
2018-01-10T19:17:51.847Z,9.85
2018-01-10T19:20:19.470Z,9.81
2018-01-10T19:22:47.078Z,9.79
2018-01-10T19:25:14.732Z,9.78
2018-01-10T19:27:42.350Z,9.75
2018-01-10T19:30:09.960Z,9.72
2018-01-10T19:32:37.627Z,9.70
2018-01-10T19:35:05.297Z,9.67
2018-01-10T19:37:32.894Z,9.64
2018-01-10T19:40:00.519Z,9.64
2018-01-10T19:42:28.108Z,9.63
2018-01-10T19:44:55.710Z,9.63
2018-01-10T19:47:23.396Z,9.65
2018-01-10T19:49:51.048Z,9.66
2018-01-10T19:52:18.694Z,9.64
2018-01-10T19:54:46.376Z,9.60
2018-01-10T19:57:13.963Z,9.60
2018-01-10T19:59:41.656Z,9.62
2018-01-10T20:10:52.390Z,9.58
2018-01-10T20:13:20.043Z,9.59
2018-01-10T20:15:47.695Z,9.56
2018-01-10T20:18:15.387Z,9.56
2018-01-10T20:20:43.014Z,9.59
2018-01-10T20:23:10.609Z,9.61
2018-01-10T20:25:38.268Z,9.60
2018-01-10T20:28:05.942Z,9.59
2018-01-10T20:30:33.607Z,9.58
2018-01-10T20:33:01.236Z,9.56
2018-01-10T20:35:28.868Z,9.54
2018-01-10T20:37:56.455Z,9.53
2018-01-10T20:40:24.074Z,9.50
2018-01-10T20:42:51.666Z,9.47
2018-01-10T20:45:19.305Z,9.47
2018-01-10T20:47:46.888Z,9.48
2018-01-10T20:50:14.537Z,9.44
2018-01-10T20:52:42.145Z,9.45
2018-01-10T20:55:09.760Z,9.45
2018-01-10T20:57:37.366Z,9.40
2018-01-10T21:00:04.953Z,9.38
2018-01-10T21:02:32.603Z,9.34
2018-01-10T21:05:00.213Z,9.32
2018-01-10T21:07:27.875Z,9.30
2018-01-10T21:09:55.530Z,9.28
2018-01-10T21:12:23.193Z,9.27
2018-01-10T21:14:50.790Z,9.25
2018-01-10T21:17:18.398Z,9.25
2018-01-10T21:19:45.994Z,9.26
2018-01-10T21:22:13.629Z,9.22
2018-01-10T21:24:41.257Z,9.22
2018-01-10T21:27:08.950Z,9.27
2018-01-10T21:29:36.554Z,9.24
2018-01-10T21:32:04.192Z,9.28
2018-01-10T21:34:31.772Z,9.29
2018-01-10T21:36:59.403Z,9.27
2018-01-10T21:39:27.079Z,9.25
2018-01-10T21:41:54.756Z,9.21
2018-01-10T21:44:22.407Z,9.21
2018-01-10T21:46:50.498Z,9.20
2018-01-10T21:49:21.135Z,9.18
2018-01-10T21:51:48.872Z,9.18
2018-01-10T21:54:16.475Z,9.18
2018-01-10T21:56:44.141Z,9.25
2018-01-10T21:59:11.781Z,9.27
2018-01-10T22:01:39.488Z,9.23
2018-01-10T22:04:07.061Z,9.20
2018-01-10T22:06:34.699Z,9.18
2018-01-10T22:09:02.285Z,9.16
2018-01-10T22:11:29.925Z,9.13
2018-01-10T22:13:57.531Z,9.10
2018-01-10T22:16:25.138Z,9.14
2018-01-10T22:18:52.749Z,9.16
2018-01-10T22:21:20.394Z,9.15
2018-01-10T22:23:48.007Z,9.19
2018-01-10T22:26:15.711Z,9.17
2018-01-10T22:28:43.303Z,9.15
2018-01-10T22:31:10.954Z,9.15
2018-01-10T22:33:38.663Z,9.07
2018-01-10T22:36:06.269Z,9.03
2018-01-10T22:38:33.871Z,8.98
2018-01-10T22:41:01.528Z,8.94
2018-01-10T22:43:29.121Z,8.94
2018-01-10T22:45:56.749Z,8.93
2018-01-10T22:48:24.334Z,8.92
2018-01-10T22:50:51.971Z,8.90
2018-01-10T22:53:19.578Z,8.86
2018-01-10T22:55:47.301Z,8.82
2018-01-10T22:58:14.903Z,8.83
2018-01-10T23:00:42.534Z,8.84
2018-01-10T23:03:10.267Z,8.84
2018-01-10T23:05:37.866Z,8.83
2018-01-10T23:08:05.528Z,8.81
2018-01-10T23:10:33.164Z,8.84
2018-01-10T23:13:00.899Z,8.86
2018-01-10T23:15:28.546Z,8.93
2018-01-10T23:17:56.275Z,8.99
2018-01-10T23:20:23.885Z,9.01
2018-01-10T23:22:51.479Z,9.00
2018-01-10T23:25:19.215Z,8.97
2018-01-10T23:27:46.914Z,8.94
2018-01-10T23:30:14.710Z,8.88
2018-01-10T23:32:42.312Z,8.86
2018-01-10T23:35:09.936Z,8.89
2018-01-10T23:37:37.502Z,8.86
2018-01-10T23:40:05.118Z,8.86
2018-01-10T23:42:32.714Z,8.88
2018-01-10T23:45:00.358Z,8.91
2018-01-10T23:47:27.945Z,8.97
2018-01-10T23:49:55.577Z,8.96
2018-01-10T23:52:23.362Z,8.96
2018-01-10T23:54:51.042Z,8.95
2018-01-10T23:57:18.639Z,8.96
2018-01-10T23:59:46.254Z,8.94
